Time;durP1;ratioP1;P1;durP2;ratioP2;P2;SDS_P1;SDS_P2;PMS_P1;PMS_P2;Temp;Humidity;BMP_temperature;BMP_pressure;BME280_temperature;BME280_humidity;BME280_pressure;Samples;Min_cycle;Max_cycle;Signal;HPM_P1;HPM_P2
2021/01/31 00:00:45;;;;;;;22.45;13.13;;;1.60;78.70;;;0.54;63.47;93429.78;5052406;28;20224;-89
2021/01/31 00:03:18;;;;;;;22.42;13.68;;;1.60;78.70;;;0.52;63.86;93415.44;5036807;28;20250;-89
2021/01/31 00:05:46;;;;;;;22.75;13.55;;;1.60;78.70;;;0.53;63.94;93428.16;5068951;28;20211;-88
2021/01/31 00:08:17;;;;;;;25.70;15.52;;;1.60;78.70;;;0.54;63.85;93428.97;5019320;28;20250;-88
2021/01/31 00:10:45;;;;;;;26.02;14.27;;;1.60;78.70;;;0.54;63.83;93434.94;5035790;28;20216;-89
2021/01/31 00:13:12;;;;;;;25.98;14.68;;;1.60;78.70;;;0.55;64.03;93436.56;5019963;28;20580;-87
2021/01/31 00:15:45;;;;;;;23.60;13.60;;;1.60;78.70;;;0.52;63.64;93426.56;5019819;28;20319;-89
2021/01/31 00:18:16;;;;;;;24.95;14.57;;;1.60;78.70;;;0.55;64.04;93423.66;5020050;28;20635;-88
2021/01/31 00:20:51;;;;;;;25.75;14.75;;;1.60;78.80;;;0.55;64.03;93422.84;5019444;28;20702;-88
2021/01/31 00:23:19;;;;;;;26.77;15.30;;;1.60;78.90;;;0.50;63.98;93414.78;5052813;28;20199;-89
2021/01/31 00:25:46;;;;;;;24.17;14.05;;;1.60;78.90;;;0.51;64.17;93424.16;5036106;28;20212;-89
2021/01/31 00:28:16;;;;;;;22.23;13.20;;;1.60;78.90;;;0.58;63.92;93428.47;5035608;28;20269;-88
2021/01/31 00:30:46;;;;;;;18.80;11.75;;;1.60;78.90;;;0.59;64.24;93432.66;5053972;28;20689;-88
2021/01/31 00:33:22;;;;;;;21.60;12.45;;;1.60;78.90;;;0.59;64.00;93437.03;5036576;28;20254;-88
2021/01/31 00:35:51;;;;;;;19.25;11.32;;;1.60;78.80;;;0.61;64.02;93435.06;5035816;28;20223;-88
2021/01/31 00:38:22;;;;;;;18.40;10.15;;;1.60;78.80;;;0.60;63.70;93430.91;5052163;28;20204;-88
2021/01/31 00:40:51;;;;;;;17.38;10.52;;;1.60;78.70;;;0.59;63.84;93447.34;5037084;28;20282;-89
2021/01/31 00:43:19;;;;;;;17.90;10.52;;;1.60;78.70;;;0.55;63.88;93439.13;5034808;28;20250;-88
2021/01/31 00:45:46;;;;;;;17.58;9.80;;;1.60;78.70;;;0.57;64.00;93457.81;5051800;28;20224;-88
2021/01/31 00:48:14;;;;;;;16.38;10.20;;;1.60;78.70;;;0.53;63.72;93443.66;5036495;28;20195;-88
2021/01/31 00:50:42;;;;;;;16.25;10.27;;;1.60;78.70;;;0.53;63.88;93448.81;5019723;28;20238;-89
2021/01/31 00:53:14;;;;;;;17.65;9.98;;;1.60;78.70;;;0.54;63.86;93454.75;5052727;28;20192;-88
2021/01/31 00:55:45;;;;;;;17.83;10.63;;;1.60;78.70;;;0.50;63.92;93448.34;5035824;28;20688;-89
2021/01/31 00:58:16;;;;;;;17.23;10.60;;;1.60;78.70;;;0.51;63.91;93458.47;5036254;28;20218;-88
2021/01/31 01:00:45;;;;;;;15.77;9.70;;;1.60;78.70;;;0.52;63.96;93454.13;5020124;28;20326;-89
2021/01/31 01:03:17;;;;;;;15.48;9.43;;;1.60;78.70;;;0.50;63.81;93456.91;5035420;28;20238;-89
2021/01/31 01:06:13;;;;;;;16.63;9.25;;;1.60;78.70;;;0.50;64.15;93463.81;5030955;28;20232;-88
2021/01/31 01:08:41;;;;;;;14.25;8.55;;;1.60;78.70;;;0.46;64.14;93468.50;5051803;28;20211;-88
2021/01/31 01:11:08;;;;;;;16.60;9.30;;;1.60;78.70;;;0.43;63.79;93469.63;5035807;28;20281;-89
2021/01/31 01:13:35;;;;;;;17.05;9.77;;;1.60;78.70;;;0.38;64.03;93460.78;5052152;28;20685;-88
2021/01/31 01:16:02;;;;;;;14.73;9.23;;;1.50;78.60;;;0.38;63.87;93466.75;5018594;28;20269;-89
2021/01/31 01:18:28;;;;;;;12.95;8.15;;;1.50;78.60;;;0.34;64.03;93462.88;5052187;28;20235;-89
2021/01/31 01:20:55;;;;;;;15.70;9.05;;;1.50;78.60;;;0.36;63.81;93468.69;5035782;28;20297;-89
2021/01/31 01:23:22;;;;;;;16.05;9.48;;;1.50;78.60;;;0.33;63.93;93474.19;5052052;28;20293;-89
2021/01/31 01:25:49;;;;;;;13.80;8.75;;;1.50;79.40;;;0.28;63.92;93466.94;5018181;28;20212;-89
2021/01/31 01:28:16;;;;;;;14.85;9.60;;;1.40;78.50;;;0.27;63.95;93473.06;5068577;28;20269;-89
2021/01/31 01:30:43;;;;;;;14.20;8.88;;;1.40;79.30;;;0.25;63.73;93469.84;5069338;28;20216;-89
2021/01/31 01:33:10;;;;;;;15.45;8.85;;;1.40;78.50;;;0.22;64.00;93469.34;5084736;28;20200;-88
2021/01/31 01:35:36;;;;;;;14.95;9.15;;;1.40;78.50;;;0.20;64.07;93468.72;5051126;28;20256;-89
2021/01/31 01:38:03;;;;;;;16.30;9.15;;;1.40;78.60;;;0.11;63.69;93449.88;5049940;28;20277;-88
2021/01/31 01:40:38;;;;;;;14.13;8.65;;;1.30;78.50;;;0.15;63.98;93469.22;5055292;28;20753;-89
2021/01/31 01:43:10;;;;;;;14.70;9.25;;;1.30;78.40;;;0.12;63.77;93462.63;5050513;28;20200;-88
2021/01/31 01:45:37;;;;;;;15.85;8.80;;;1.30;78.50;;;0.08;63.88;93461.31;5049139;28;20231;-88
2021/01/31 01:48:16;;;;;;;14.80;9.23;;;1.30;78.50;;;0.06;63.60;93465.84;5050071;28;20207;-88
2021/01/31 01:50:55;;;;;;;15.50;9.20;;;1.30;78.20;;;0.04;63.86;93464.38;5049567;28;20312;-89
2021/01/31 01:53:24;;;;;;;15.60;9.38;;;1.20;78.40;;;-0.05;63.76;93453.28;5016737;28;20258;-88
2021/01/31 01:56:23;;;;;;;16.38;9.13;;;1.20;78.40;;;0.01;63.91;93475.03;5048680;28;20279;-88
2021/01/31 01:58:55;;;;;;;15.65;9.15;;;1.20;78.30;;;0.00;64.06;93476.81;5051201;28;20238;-87
2021/01/31 02:01:23;;;;;;;17.08;9.65;;;1.20;78.40;;;-0.02;63.98;93478.75;5050606;28;20243;-89
2021/01/31 02:03:55;;;;;;;16.02;9.80;;;1.10;78.40;;;0.00;63.74;93481.97;5038014;28;20266;-88
2021/01/31 02:06:26;;;;;;;15.43;9.13;;;1.10;78.30;;;-0.03;63.97;93475.34;5033522;28;20266;-88
2021/01/31 02:08:56;;;;;;;16.75;9.93;;;1.10;78.30;;;-0.02;64.11;93476.97;5047550;28;20200;-88
2021/01/31 02:11:23;;;;;;;14.52;9.00;;;1.10;78.30;;;0.01;63.98;93478.41;5033117;28;20291;-88
2021/01/31 02:13:58;;;;;;;14.68;9.05;;;1.10;78.30;;;0.01;64.10;93470.66;5035464;28;20208;-87
2021/01/31 02:17:09;;;;;;;13.88;8.98;;;1.10;78.30;;;-0.02;63.73;93469.22;5032937;28;20224;-88
2021/01/31 02:20:19;;;;;;;15.73;8.63;;;1.10;79.10;;;-0.01;63.76;93468.25;5034631;28;20624;-88
2021/01/31 02:23:29;;;;;;;14.95;9.32;;;1.10;78.30;;;-0.03;64.05;93470.19;5054918;28;20196;-88
2021/01/31 02:26:10;;;;;;;14.13;8.77;;;1.10;78.40;;;-0.05;64.10;93469.56;5095995;28;20705;-89
2021/01/31 02:29:00;;;;;;;15.52;9.52;;;1.10;78.30;;;-0.05;63.89;93474.72;5071463;28;20271;-88
2021/01/31 02:31:48;;;;;;;16.73;10.13;;;1.10;78.30;;;-0.07;64.18;93481.00;5037069;28;20596;-88
2021/01/31 02:34:54;;;;;;;21.67;10.75;;;1.10;78.30;;;-0.10;63.96;93476.97;5019676;28;20204;-88
2021/01/31 02:37:52;;;;;;;20.05;10.82;;;1.10;78.30;;;-0.09;64.33;93480.34;5037564;28;20196;-89
2021/01/31 02:40:41;;;;;;;17.45;10.88;;;1.10;78.30;;;-0.11;64.42;93482.28;5050801;28;20324;-89
2021/01/31 02:43:26;;;;;;;17.95;10.45;;;1.10;78.30;;;-0.12;64.15;93483.25;5050858;28;20253;-88
2021/01/31 02:46:08;;;;;;;15.15;10.00;;;1.00;78.30;;;-0.18;64.02;93475.19;5031149;28;20222;-89
2021/01/31 02:48:43;;;;;;;19.40;10.85;;;1.00;78.30;;;-0.17;64.17;93474.22;5051820;28;20246;-89
2021/01/31 02:51:26;;;;;;;13.75;9.45;;;1.00;78.30;;;-0.19;64.13;93470.22;5053955;28;20219;-88
2021/01/31 02:54:09;;;;;;;14.68;9.40;;;1.00;78.30;;;-0.17;64.50;93474.22;5028576;28;20748;-88
2021/01/31 02:56:56;;;;;;;20.02;11.00;;;1.00;78.30;;;-0.19;64.14;93481.31;5086599;28;20231;-88
2021/01/31 02:59:54;;;;;;;14.00;9.35;;;1.00;78.30;;;-0.22;64.29;93486.81;5045066;28;20193;-88
2021/01/31 03:02:34;;;;;;;15.90;9.82;;;1.00;78.30;;;-0.22;64.10;93489.38;5029271;28;20673;-89
2021/01/31 03:05:16;;;;;;;15.32;9.38;;;1.00;78.30;;;-0.17;63.95;93496.63;5051865;28;20216;-89
2021/01/31 03:08:03;;;;;;;13.73;8.82;;;1.00;78.30;;;-0.19;63.71;93489.03;5037678;28;20207;-88
2021/01/31 03:11:01;;;;;;;16.50;9.73;;;1.00;78.30;;;-0.20;64.00;93492.59;5037309;28;20224;-89
2021/01/31 03:13:37;;;;;;;16.27;9.90;;;1.00;78.30;;;-0.19;64.07;93486.47;5025126;28;20223;-89
2021/01/31 03:16:15;;;;;;;17.98;10.07;;;1.00;78.40;;;-0.20;64.02;93487.44;5051959;28;20236;-88
2021/01/31 03:19:07;;;;;;;19.10;10.98;;;1.00;78.30;;;-0.22;64.25;93483.41;5054912;28;20192;-89
2021/01/31 03:21:37;;;;;;;16.95;10.52;;;0.90;78.40;;;-0.24;63.79;93467.31;5036502;28;20255;-88
2021/01/31 03:24:28;;;;;;;15.05;10.00;;;0.90;78.50;;;-0.19;64.17;93483.09;5067565;28;20206;-88
2021/01/31 03:27:12;;;;;;;15.65;10.68;;;0.90;78.50;;;-0.20;63.97;93484.06;5029307;28;20220;-88
2021/01/31 03:29:39;;;;;;;15.02;10.05;;;0.90;78.40;;;-0.21;64.16;93483.28;5050719;28;20299;-89
2021/01/31 03:32:20;;;;;;;18.52;10.93;;;1.00;78.60;;;-0.21;64.12;93483.28;5050517;28;20296;-87
2021/01/31 03:34:57;;;;;;;17.67;11.05;;;0.90;78.40;;;-0.19;64.17;93493.41;5027803;28;20256;-89
2021/01/31 03:37:43;;;;;;;20.65;11.48;;;0.90;78.50;;;-0.21;64.21;93492.75;5033093;28;20456;-89
2021/01/31 03:40:13;;;;;;;21.35;12.27;;;0.90;78.50;;;-0.19;64.05;93490.81;5023965;28;20227;-88
2021/01/31 03:42:44;;;;;;;17.65;10.82;;;0.90;78.40;;;-0.19;64.11;93493.41;5051870;28;20195;-88
2021/01/31 03:45:14;;;;;;;18.33;10.45;;;0.90;78.50;;;-0.19;64.07;93494.19;5035121;28;20219;-89
2021/01/31 03:47:50;;;;;;;20.77;11.30;;;0.90;78.60;;;-0.18;63.95;93503.53;5051592;28;20204;-88
2021/01/31 03:50:17;;;;;;;18.33;10.80;;;0.90;78.50;;;-0.17;64.26;93499.22;5068495;28;20224;-89
2021/01/31 03:52:45;;;;;;;17.27;10.88;;;0.90;78.50;;;-0.18;64.06;93511.28;5052915;28;20262;-88
2021/01/31 03:55:12;;;;;;;18.73;11.05;;;0.90;78.50;;;-0.14;64.18;93508.38;5052894;28;20731;-89
2021/01/31 03:57:51;;;;;;;18.85;10.43;;;0.90;78.50;;;-0.15;64.20;93514.50;5033543;28;20292;-88
2021/01/31 04:00:24;;;;;;;19.10;10.98;;;0.90;78.50;;;-0.16;64.22;93516.25;5040564;28;20215;-89
2021/01/31 04:03:01;;;;;;;18.58;10.88;;;1.10;78.60;;;-0.15;63.99;93517.88;5036338;28;20206;-88
2021/01/31 04:05:32;;;;;;;17.02;10.35;;;1.00;78.50;;;-0.19;64.08;93509.66;5053535;28;20220;-89
2021/01/31 04:08:05;;;;;;;17.13;10.95;;;0.90;78.50;;;-0.18;63.94;93513.84;5052725;28;20199;-88
2021/01/31 04:10:32;;;;;;;18.05;10.63;;;0.90;78.40;;;-0.16;64.21;93516.25;5037052;28;20755;-88
2021/01/31 04:13:04;;;;;;;16.05;9.60;;;0.90;78.50;;;-0.21;64.11;93511.63;5053355;28;20230;-88
2021/01/31 04:15:51;;;;;;;16.80;9.32;;;0.90;78.40;;;-0.21;64.07;93510.78;5053196;28;20281;-89
2021/01/31 04:18:20;;;;;;;18.27;10.52;;;0.90;79.10;;;-0.23;63.96;93510.97;5069569;28;20197;-88
2021/01/31 04:20:48;;;;;;;15.77;9.52;;;0.90;78.40;;;-0.26;63.76;93516.41;5053056;28;20498;-88
2021/01/31 04:23:15;;;;;;;18.58;10.07;;;0.90;78.40;;;-0.24;64.15;93516.28;5036213;28;20254;-89
2021/01/31 04:25:44;;;;;;;15.55;9.05;;;0.90;78.30;;;-0.25;64.05;93519.81;5051572;28;20681;-89
2021/01/31 04:28:16;;;;;;;13.98;9.30;;;0.90;78.30;;;-0.24;63.92;93527.38;5053243;28;20199;-89
2021/01/31 04:30:45;;;;;;;14.23;8.88;;;0.90;78.30;;;-0.25;63.92;93525.75;5052034;28;20318;-88
2021/01/31 04:33:14;;;;;;;14.95;9.02;;;0.90;78.30;;;-0.26;64.06;93523.34;5052885;28;20235;-89
2021/01/31 04:35:42;;;;;;;17.80;9.63;;;0.90;78.20;;;-0.27;63.93;93524.31;5052463;28;20231;-89
2021/01/31 04:38:09;;;;;;;13.80;9.23;;;0.90;78.30;;;-0.36;64.00;93513.19;5019199;28;20191;-89
2021/01/31 04:40:36;;;;;;;13.68;8.02;;;0.90;78.20;;;-0.31;63.66;93528.97;5036153;28;20243;-89
2021/01/31 04:43:11;;;;;;;14.13;8.57;;;0.80;78.20;;;-0.33;63.79;93526.56;5052764;28;20200;-88
2021/01/31 04:45:39;;;;;;;13.02;8.48;;;0.80;78.20;;;-0.40;63.99;93515.28;5035863;28;20223;-88
2021/01/31 04:48:50;;;;;;;14.73;8.75;;;0.80;78.20;;;-0.40;63.75;93510.13;5050027;28;20196;-87
2021/01/31 04:52:00;;;;;;;15.77;8.80;;;0.80;78.20;;;-0.42;63.69;93524.94;5034590;28;20228;-88
2021/01/31 04:54:45;;;;;;;14.43;8.40;;;0.80;78.10;;;-0.56;63.81;93508.34;5069685;28;20727;-88
2021/01/31 04:57:24;;;;;;;16.10;8.48;;;0.80;78.10;;;-0.53;63.68;93520.88;5064408;28;20206;-88
2021/01/31 04:59:52;;;;;;;13.68;8.18;;;0.80;78.20;;;-0.52;63.91;93537.16;5046906;28;20219;-88
2021/01/31 05:02:46;;;;;;;11.38;7.70;;;0.70;78.10;;;-0.53;63.88;93532.97;5050879;28;20218;-88
2021/01/31 05:05:21;;;;;;;13.15;8.23;;;0.70;78.10;;;-0.55;63.95;93537.47;5043545;28;20228;-87
2021/01/31 05:07:55;;;;;;;13.40;7.75;;;0.70;78.10;;;-0.53;63.94;93532.97;5034399;28;20613;-88
2021/01/31 05:10:24;;;;;;;14.35;7.78;;;0.70;78.10;;;-0.53;63.75;93533.75;5034197;28;20709;-88
2021/01/31 05:12:57;;;;;;;11.85;7.50;;;0.60;78.00;;;-0.53;63.86;93533.75;5033865;28;20281;-88
2021/01/31 05:15:29;;;;;;;13.00;7.80;;;0.60;78.00;;;-0.53;63.81;93538.91;5066476;28;20223;-87
2021/01/31 05:18:00;;;;;;;13.20;7.57;;;0.60;78.00;;;-0.53;63.49;93543.28;5049835;28;20674;-87
2021/01/31 05:20:31;;;;;;;13.20;7.93;;;0.60;78.00;;;-0.55;63.81;93542.63;5052314;28;20232;-87
2021/01/31 05:23:00;;;;;;;12.68;7.93;;;0.60;78.00;;;-0.57;63.69;93545.34;5019554;28;20224;-87
2021/01/31 05:25:32;;;;;;;11.80;7.40;;;0.60;78.00;;;-0.56;63.66;93548.72;5034879;28;20224;-86
2021/01/31 05:28:03;;;;;;;11.00;7.03;;;0.60;78.00;;;-0.57;63.61;93555.66;5052301;28;20200;-87
2021/01/31 05:30:32;;;;;;;9.75;6.28;;;0.60;78.00;;;-0.62;63.71;93544.22;5051781;28;20220;-88
2021/01/31 05:33:12;;;;;;;11.43;7.43;;;0.60;78.00;;;-0.57;63.62;93560.03;5035648;28;20776;-88
2021/01/31 05:35:51;;;;;;;10.80;6.43;;;0.60;78.00;;;-0.59;63.59;93552.44;5035383;28;20223;-87
2021/01/31 05:38:41;;;;;;;10.73;7.18;;;0.60;78.00;;;-0.64;63.72;93554.69;5049008;28;20196;-87
2021/01/31 05:41:46;;;;;;;11.15;6.75;;;0.60;78.00;;;-0.65;63.66;93560.78;5051886;28;20628;-88
2021/01/31 05:44:15;;;;;;;9.93;6.28;;;0.50;77.90;;;-0.65;63.68;93568.50;5051463;28;20306;-87
2021/01/31 05:47:02;;;;;;;10.10;6.25;;;0.50;78.00;;;-0.68;63.67;93564.47;5068932;28;20234;-88
2021/01/31 05:49:40;;;;;;;9.35;6.10;;;0.50;77.90;;;-0.67;63.86;93566.09;5054208;28;20218;-88
2021/01/31 05:52:22;;;;;;;12.65;7.03;;;0.50;78.00;;;-0.67;63.81;93563.53;5039556;28;20203;-87
2021/01/31 05:54:53;;;;;;;15.73;8.75;;;0.50;78.00;;;-0.66;63.72;93572.88;5070778;28;20718;-88
2021/01/31 05:57:35;;;;;;;30.10;12.65;;;0.50;78.00;;;-0.65;63.85;93579.63;5039604;28;20230;-88
2021/01/31 06:00:29;;;;;;;21.67;10.48;;;0.50;77.90;;;-0.72;63.57;93565.75;5038679;28;20262;-87
2021/01/31 06:03:02;;;;;;;15.57;9.02;;;0.50;78.00;;;-0.66;63.81;93585.75;5039143;28;20204;-87
2021/01/31 06:05:29;;;;;;;14.27;7.43;;;0.50;78.00;;;-0.66;63.73;93579.75;5038947;28;20223;-88
2021/01/31 06:08:06;;;;;;;11.50;7.22;;;0.50;78.00;;;-0.65;63.71;93589.09;5055384;28;20572;-87
2021/01/31 06:10:39;;;;;;;11.68;8.07;;;0.50;78.00;;;-0.66;63.64;93583.16;5038460;28;20584;-88
2021/01/31 06:13:35;;;;;;;24.30;10.70;;;0.50;78.10;;;-0.69;63.63;93575.75;5055496;28;20554;-87
2021/01/31 06:16:16;;;;;;;19.35;9.88;;;0.50;77.90;;;-0.70;63.71;93568.19;5054051;28;20248;-88
2021/01/31 06:18:55;;;;;;;20.55;10.25;;;0.50;78.00;;;-0.71;63.51;93582.00;5055284;28;20706;-88
2021/01/31 06:21:39;;;;;;;16.90;8.38;;;0.50;78.00;;;-0.72;63.60;93583.78;5055714;28;20318;-88
2021/01/31 06:24:27;;;;;;;14.55;8.60;;;0.50;77.70;;;-0.74;63.58;93572.84;5071251;28;20230;-88
2021/01/31 06:26:56;;;;;;;14.88;8.00;;;0.50;77.80;;;-0.74;63.50;93582.34;5038791;28;20731;-88
2021/01/31 06:30:00;;;;;;;14.98;7.75;;;0.50;78.00;;;-0.78;63.63;93584.41;5054588;28;20270;-88
2021/01/31 06:32:32;;;;;;;11.88;7.57;;;0.40;77.90;;;-0.77;63.49;93596.28;5071539;28;20199;-88
2021/01/31 06:35:11;;;;;;;9.95;6.25;;;0.40;77.90;;;-0.80;63.82;93588.91;5037221;28;20216;-87
2021/01/31 06:38:18;;;;;;;11.70;7.13;;;0.40;77.90;;;-0.77;63.78;93592.94;5036555;28;20192;-87
2021/01/31 06:41:03;;;;;;;11.98;7.07;;;0.40;77.80;;;-0.77;63.53;93587.78;5071152;28;20663;-88
2021/01/31 06:43:49;;;;;;;11.93;7.13;;;0.40;77.90;;;-0.75;63.54;93589.22;5054131;28;20599;-88
2021/01/31 06:46:44;;;;;;;9.10;6.10;;;0.40;77.90;;;-0.76;63.68;93589.41;5038538;28;20685;-87
2021/01/31 06:49:54;;;;;;;11.05;6.95;;;0.40;77.80;;;-0.73;63.41;93601.94;5070408;28;20192;-88
2021/01/31 06:52:39;;;;;;;15.45;8.55;;;0.40;77.90;;;-0.71;63.83;93602.59;5048471;28;20826;-87
2021/01/31 06:55:17;;;;;;;14.43;7.85;;;0.40;77.90;;;-0.67;63.83;93609.06;5070614;28;20224;-88
2021/01/31 06:58:22;;;;;;;15.02;8.07;;;0.40;77.90;;;-0.69;63.77;93609.22;5055444;28;20677;-88
2021/01/31 07:01:49;;;;;;;17.73;9.18;;;0.40;77.90;;;-0.65;63.51;93615.69;5069445;28;20281;-88
2021/01/31 07:04:32;;;;;;;13.23;7.55;;;0.50;77.90;;;-0.60;63.86;93619.53;5048887;28;20212;-87
2021/01/31 07:07:31;;;;;;;12.10;7.07;;;0.50;78.00;;;-0.56;63.67;93621.66;5071125;28;20200;-88
2021/01/31 07:10:45;;;;;;;10.00;6.40;;;0.50;78.00;;;-0.58;63.70;93613.28;5038000;28;20277;-86
2021/01/31 07:13:32;;;;;;;9.40;6.88;;;0.50;78.00;;;-0.50;63.91;93620.22;5018703;28;20196;-88
2021/01/31 07:16:09;;;;;;;8.65;5.97;;;0.60;78.00;;;-0.45;63.51;93627.47;5037483;28;20224;-88
2021/01/31 07:18:51;;;;;;;9.52;6.05;;;0.60;78.00;;;-0.41;63.53;93623.66;5050019;28;20239;-86
2021/01/31 07:21:30;;;;;;;9.00;6.10;;;0.60;78.00;;;-0.39;63.24;93632.81;5056982;28;20741;-86
2021/01/31 07:24:02;;;;;;;7.90;5.65;;;0.70;78.10;;;-0.40;63.47;93631.22;5018710;28;20253;-86
2021/01/31 07:27:01;;;;;;;10.43;5.80;;;0.70;78.10;;;-0.38;63.47;93634.44;5059235;28;20307;-87
2021/01/31 07:29:38;;;;;;;12.52;6.82;;;0.70;78.10;;;-0.36;63.37;93624.78;5036848;28;20566;-86
2021/01/31 07:32:13;;;;;;;10.18;6.78;;;0.70;78.10;;;-0.36;63.28;93623.97;5065917;28;20235;-86
2021/01/31 07:35:05;;;;;;;11.82;6.82;;;0.70;78.10;;;-0.35;63.40;93623.00;5051586;28;20261;-86
2021/01/31 07:37:36;;;;;;;11.23;6.72;;;0.70;77.90;;;-0.34;63.55;93616.91;5088907;28;20294;-86
2021/01/31 07:40:23;;;;;;;11.88;6.68;;;0.80;78.20;;;-0.31;63.49;93618.34;5073702;28;20216;-86
2021/01/31 07:42:55;;;;;;;10.52;6.63;;;0.80;78.20;;;-0.23;63.54;93624.31;5033781;28;20211;-86
2021/01/31 07:45:25;;;;;;;11.65;7.05;;;0.80;78.20;;;-0.19;63.61;93625.63;5051448;28;20781;-86
2021/01/31 07:48:28;;;;;;;15.88;8.23;;;0.80;78.20;;;-0.13;63.69;93629.34;5018043;28;20207;-85
2021/01/31 07:50:55;;;;;;;12.95;7.32;;;0.90;78.20;;;-0.08;63.55;93629.66;5072262;28;20285;-87
2021/01/31 07:53:41;;;;;;;11.43;6.95;;;0.90;78.30;;;-0.01;63.53;93638.38;5050742;28;20710;-87
2021/01/31 07:56:32;;;;;;;10.88;7.40;;;0.90;78.20;;;0.03;63.37;93636.28;5067974;28;20224;-87
2021/01/31 07:59:19;;;;;;;11.63;7.30;;;1.00;78.10;;;0.08;63.63;93630.66;5063350;28;20193;-88
2021/01/31 08:01:54;;;;;;;11.20;7.10;;;1.00;78.20;;;0.13;63.56;93629.19;5036713;28;20853;-87
2021/01/31 08:04:45;;;;;;;8.75;6.10;;;1.10;78.30;;;0.18;63.34;93631.31;5051404;28;20200;-87
2021/01/31 08:08:00;;;;;;;9.85;6.28;;;1.10;78.30;;;0.24;63.45;93632.44;5081914;28;20197;-86
2021/01/31 08:10:51;;;;;;;7.97;5.50;;;1.20;78.10;;;0.31;63.54;93631.63;5060132;28;20220;-86
2021/01/31 08:13:51;;;;;;;8.82;6.05;;;1.20;78.20;;;0.38;63.24;93634.41;5053389;28;20188;-86
2021/01/31 08:16:47;;;;;;;7.82;5.20;;;1.30;78.10;;;0.48;63.54;93640.19;5036442;28;20602;-85
2021/01/31 08:19:17;;;;;;;10.68;6.53;;;1.30;78.20;;;0.55;63.66;93642.94;5053123;28;20200;-85
2021/01/31 08:21:54;;;;;;;10.48;6.85;;;1.40;78.60;;;0.66;63.62;93646.97;5068005;28;20220;-87
2021/01/31 08:25:05;;;;;;;10.35;6.32;;;1.40;78.50;;;0.77;63.57;93651.78;5032453;28;20204;-87
2021/01/31 08:27:41;;;;;;;10.57;6.93;;;1.50;78.30;;;0.91;63.46;93654.69;5063603;28;20212;-86
2021/01/31 08:30:35;;;;;;;9.95;6.10;;;1.60;78.70;;;1.01;63.46;93652.72;5080672;28;20219;-87
2021/01/31 08:33:02;;;;;;;10.77;6.32;;;1.70;78.30;;;1.13;63.69;93655.78;5055919;28;20266;-87
2021/01/31 08:35:53;;;;;;;9.25;5.93;;;1.80;78.80;;;1.25;63.47;93653.66;5050228;28;20228;-87
2021/01/31 08:38:28;;;;;;;8.57;6.05;;;1.90;78.80;;;1.37;63.43;93651.53;5026427;28;20243;-87
2021/01/31 08:41:00;;;;;;;9.00;6.68;;;2.00;78.90;;;1.44;62.94;93647.28;5046990;28;20360;-88
2021/01/31 08:44:00;;;;;;;10.90;7.72;;;2.10;78.60;;;1.49;63.15;93642.44;5065651;28;20223;-86
2021/01/31 08:46:35;;;;;;;13.63;7.53;;;2.20;78.90;;;1.58;63.16;93644.00;5035832;28;20216;-88
2021/01/31 08:49:12;;;;;;;11.90;7.43;;;2.30;78.70;;;1.68;63.22;93643.00;5050696;28;20195;-88
2021/01/31 08:51:44;;;;;;;13.15;7.68;;;2.30;78.30;;;1.74;63.10;93637.94;5051172;28;20289;-87
2021/01/31 08:54:15;;;;;;;11.38;7.63;;;2.40;78.60;;;1.81;62.97;93643.25;5064513;28;20201;-88
2021/01/31 08:57:02;;;;;;;8.93;6.53;;;2.50;78.60;;;1.86;62.73;93646.13;5068993;28;20212;-86
2021/01/31 08:59:49;;;;;;;11.95;8.18;;;2.50;78.20;;;1.89;63.50;93650.97;5068386;28;20211;-87
2021/01/31 09:02:17;;;;;;;14.07;8.13;;;2.60;78.60;;;1.97;63.17;93663.03;5033718;28;20215;-87
2021/01/31 09:04:52;;;;;;;13.48;8.63;;;2.70;78.80;;;2.06;63.10;93656.03;5066322;28;20219;-87
2021/01/31 09:07:39;;;;;;;16.33;10.60;;;2.80;78.40;;;2.14;62.75;93656.00;5049304;28;20204;-87
2021/01/31 09:10:31;;;;;;;13.00;8.73;;;2.80;78.30;;;2.22;62.78;93657.72;5025750;28;20708;-87
2021/01/31 09:13:38;;;;;;;12.40;7.72;;;2.80;78.30;;;2.30;62.91;93652.50;5065677;28;20243;-88
2021/01/31 09:16:34;;;;;;;15.32;10.07;;;2.90;78.20;;;2.36;62.89;93656.19;4979050;28;20233;-87
2021/01/31 09:19:23;;;;;;;13.90;9.48;;;3.00;78.20;;;2.43;62.68;93653.69;4979387;28;20202;-87
2021/01/31 09:21:57;;;;;;;19.95;11.50;;;3.10;78.10;;;2.49;62.72;93659.00;5003173;28;20307;-88
2021/01/31 09:24:26;;;;;;;14.75;10.43;;;3.10;78.50;;;2.54;62.78;93659.28;5037568;28;20207;-88
2021/01/31 09:26:56;;;;;;;14.45;9.52;;;3.20;78.60;;;2.62;62.34;93657.63;5028250;28;20218;-87
2021/01/31 09:29:29;;;;;;;15.55;9.68;;;3.30;78.50;;;2.68;62.63;93662.09;5039449;28;20321;-87
2021/01/31 09:32:28;;;;;;;12.73;8.70;;;3.30;78.40;;;2.74;62.63;93658.81;5056473;28;20650;-87
2021/01/31 09:34:59;;;;;;;11.73;7.68;;;3.40;78.20;;;2.81;62.27;93657.13;5052410;28;20277;-87
2021/01/31 09:37:29;;;;;;;11.65;8.02;;;3.40;78.30;;;2.82;62.61;93656.16;5065560;28;20192;-87
2021/01/31 09:40:06;;;;;;;13.77;8.05;;;3.50;78.30;;;2.92;62.56;93657.69;5038093;28;20285;-88
2021/01/31 09:42:37;;;;;;;12.00;8.10;;;3.50;78.20;;;3.01;62.53;93667.78;5064804;28;20286;-89
2021/01/31 09:45:25;;;;;;;10.75;7.63;;;3.60;78.40;;;3.09;62.46;93666.94;5035276;28;20299;-88
2021/01/31 09:47:53;;;;;;;11.80;8.05;;;3.70;78.70;;;3.25;62.63;93673.72;5038372;28;20196;-89
2021/01/31 09:50:20;;;;;;;11.40;7.68;;;3.70;78.80;;;3.39;62.82;93677.31;5033649;28;20239;-88
2021/01/31 09:52:51;;;;;;;11.30;7.68;;;3.80;78.80;;;3.56;62.57;93684.91;5035518;28;20204;-89
2021/01/31 09:55:47;;;;;;;13.60;9.13;;;3.90;79.00;;;3.67;62.28;93684.47;5049749;28;20299;-89
2021/01/31 09:58:32;;;;;;;10.55;7.70;;;4.00;78.20;;;3.76;62.20;93667.00;5054698;28;20199;-89
2021/01/31 10:01:28;;;;;;;12.20;7.95;;;4.10;78.20;;;3.90;62.20;93673.19;5053998;28;20235;-89
2021/01/31 10:03:59;;;;;;;13.32;8.45;;;4.20;78.30;;;3.95;62.30;93663.84;5049125;28;20211;-88
2021/01/31 10:06:29;;;;;;;11.40;7.80;;;4.40;78.70;;;4.04;61.89;93653.38;5053916;28;20239;-89
2021/01/31 10:09:00;;;;;;;9.75;7.10;;;4.50;78.70;;;4.15;61.92;93663.28;5020974;28;20203;-88
2021/01/31 10:11:33;;;;;;;117.75;45.85;;;4.50;78.30;;;4.13;61.89;93647.09;5037042;28;20251;-88
2021/01/31 10:14:01;;;;;;;378.17;133.43;;;4.60;79.40;;;4.21;61.84;93662.56;5081054;28;20214;-88
2021/01/31 10:16:35;;;;;;;98.68;47.72;;;4.70;78.50;;;4.26;61.29;93649.84;5038395;28;20266;-88
2021/01/31 10:19:21;;;;;;;44.00;25.27;;;4.70;77.90;;;4.27;61.66;93656.66;5053520;28;20658;-89
2021/01/31 10:21:56;;;;;;;24.65;16.27;;;4.80;78.50;;;4.30;61.87;93656.25;5050837;28;20224;-88
2021/01/31 10:24:33;;;;;;;18.77;12.25;;;4.90;77.60;;;4.32;61.62;93654.28;5051663;28;20192;-89
2021/01/31 10:27:28;;;;;;;13.43;9.57;;;4.90;77.10;;;4.28;61.40;93652.25;5051877;28;21472;-88
2021/01/31 10:30:21;;;;;;;13.50;8.73;;;4.90;77.40;;;4.24;61.15;93648.41;5070049;28;20228;-89
2021/01/31 10:32:49;;;;;;;12.20;8.07;;;5.00;77.50;;;4.18;61.33;93652.53;5035772;28;20686;-88
2021/01/31 10:35:34;;;;;;;12.70;8.65;;;4.90;77.50;;;4.05;61.26;93635.03;5052570;28;20227;-87
2021/01/31 10:38:26;;;;;;;14.45;9.55;;;4.90;76.50;;;4.00;60.94;93648.56;5034376;28;20205;-88
2021/01/31 10:40:55;;;;;;;14.38;9.43;;;4.90;76.50;;;3.94;61.00;93644.13;5044942;28;20732;-88
2021/01/31 10:43:23;;;;;;;15.50;9.82;;;4.90;77.10;;;3.86;61.26;93652.00;5052666;28;20213;-88
2021/01/31 10:45:52;;;;;;;12.68;9.25;;;4.80;76.90;;;3.76;61.09;93641.09;5052402;28;20258;-87
2021/01/31 10:48:21;;;;;;;21.70;12.85;;;4.80;76.80;;;3.64;60.87;93643.34;5053522;28;20200;-88
2021/01/31 10:50:47;;;;;;;17.40;12.57;;;4.70;76.60;;;3.54;61.11;93643.63;5036844;28;20247;-88
2021/01/31 10:53:15;;;;;;;30.67;23.70;;;4.60;76.50;;;3.44;61.30;93636.13;5054052;28;20204;-88
2021/01/31 10:55:42;;;;;;;23.80;16.65;;;4.50;76.60;;;3.34;61.32;93623.44;5037620;28;20223;-89
2021/01/31 10:58:09;;;;;;;23.05;14.30;;;4.40;76.60;;;3.36;61.20;93642.19;5049854;28;20203;-89
2021/01/31 11:00:36;;;;;;;97.13;45.65;;;4.40;76.70;;;3.29;61.57;93641.28;5038479;28;20716;-89
2021/01/31 11:03:04;;;;;;;387.05;123.90;;;4.30;76.80;;;3.34;61.39;93645.94;5054062;28;20196;-90
2021/01/31 11:05:32;;;;;;;275.48;92.13;;;4.30;77.00;;;3.36;61.51;93647.38;5038231;28;20223;-89
2021/01/31 11:08:00;;;;;;;478.42;154.48;;;4.20;77.00;;;3.38;61.41;93643.78;5054506;28;20230;-89